Pagina principale
METAR-TAF:

METAR-TAF

Aeroporti :

Trapani, Italia

Aeroporto di Trapani-Birgi

latitudine: 37-55N, longitudine: 012-30E, altezza: 7 m

Osservazione

Il bollettino è stato emesso 38 minuti fa, alle 08:55 UTC
Vento 9 kt da ovest/sud-ovest
Temperature 24°C
Umidità 74%
Pressione 1017 hPa
Visibilità 10 km o più
nessuna nube inferiore a 1500 m e nessun cumulonembo

METAR: LICT 290855Z 24009KT CAVOK 24/19 Q1017 RMK SKC VIS MIN 9999 WIND THR13 22009KT BLU

Ora: 11:33 (09:33 UTC)

Previsione

Il bollettino è stato emesso 1 ora e 33 minuti fa, alle 08:00 UTC
Previsione valida dal 29 alle 09 UTC al 29 alle 18 UTC
Vento 10 kt da ovest/sud-ovest
Visibilità 10 km o più
nessuna nube inferiore a 1500 m e nessun cumulonembo
Evoluzione graduale
dal 29 alle 11 UTC al 29 alle 13 UTC
Vento 12 kt da nord-ovest

TAF: LICT 290800Z 2909/2918 24010KT CAVOK BECMG 2911/2913 31012KT

Osservazioni e previsioni meteorologiche di più di 4000 aeroporti (messaggi METAR e TAF).

Le stazioni disponibili sono rappresentate dai dischi gialli e rossi sulla carta.

Puntare il mouse per vedere il nome della stazione.

Clicca sopra per visualizzare le osservazioni e previsioni meteorologiche.

Per cambiare la mappa : fare clic sui pulsanti verdi con una croce nera per ingrandire, il pulsante verde con un trattino per diminuire, o sulla freccia verde per le mappe adiacenti.


METAR-TAF: